createdAt,value
2023-04-19T00:02:59.708Z,12.30
2023-04-19T00:07:03.583Z,17.42
2023-04-19T00:11:07.677Z,16.17
2023-04-19T00:15:11.752Z,12.57
2023-04-19T00:19:17.232Z,11.98
2023-04-19T00:23:20.396Z,15.05
2023-04-19T00:27:24.396Z,15.20
2023-04-19T00:31:27.798Z,18.17
2023-04-19T00:35:34.906Z,13.73
2023-04-19T00:39:38.323Z,13.50
2023-04-19T00:43:42.189Z,21.48
2023-04-19T00:47:45.423Z,14.50
2023-04-19T00:51:52.087Z,10.93
2023-04-19T00:55:57.241Z,12.05
2023-04-19T01:00:00.882Z,17.30
2023-04-19T01:04:06.679Z,11.75
2023-04-19T01:08:12.178Z,12.73
2023-04-19T01:12:15.541Z,18.58
2023-04-19T01:16:20.551Z,16.75
2023-04-19T01:20:24.075Z,14.32
2023-04-19T01:24:29.385Z,15.60
2023-04-19T01:28:32.563Z,15.77
2023-04-19T01:32:36.289Z,15.60
2023-04-19T01:36:39.618Z,20.17
2023-04-19T01:40:45.196Z,21.00
2023-04-19T01:44:48.527Z,13.60
2023-04-19T01:48:53.634Z,15.60
2023-04-19T01:52:57.209Z,17.67
2023-04-19T01:57:03.080Z,19.13
2023-04-19T02:01:06.264Z,19.38
2023-04-19T02:05:10.936Z,16.70
2023-04-19T02:09:14.210Z,24.23
2023-04-19T02:13:21.373Z,18.58
2023-04-19T02:17:25.892Z,15.93
2023-04-19T02:21:29.490Z,16.60
2023-04-19T02:25:33.464Z,16.80
2023-04-19T02:29:39.024Z,18.17
2023-04-19T02:33:42.540Z,16.02
2023-04-19T02:37:46.933Z,16.73
2023-04-19T02:41:50.482Z,20.55
2023-04-19T02:45:55.701Z,17.15
2023-04-19T02:49:58.968Z,17.48
2023-04-19T02:54:02.468Z,18.00
2023-04-19T02:58:06.403Z,16.45
2023-04-19T03:02:11.494Z,15.32
2023-04-19T03:06:16.544Z,21.00
2023-04-19T03:10:19.943Z,14.85
2023-04-19T03:14:23.878Z,12.82
2023-04-19T03:18:29.990Z,14.15
2023-04-19T03:22:35.206Z,16.75
2023-04-19T03:26:38.490Z,19.63
2023-04-19T03:30:42.220Z,16.58
2023-04-19T03:34:47.341Z,14.82
2023-04-19T03:38:50.643Z,21.30
2023-04-19T03:42:54.059Z,15.85
2023-04-19T03:46:57.934Z,17.77
2023-04-19T03:51:02.759Z,19.35
2023-04-19T03:55:07.124Z,17.00
2023-04-19T03:59:11.263Z,25.20
2023-04-19T04:03:15.147Z,21.10
2023-04-19T04:07:20.231Z,18.38
2023-04-19T04:11:23.947Z,16.83
2023-04-19T04:15:27.312Z,25.35
2023-04-19T04:19:31.055Z,15.70
2023-04-19T04:23:36.006Z,22.65
2023-04-19T04:27:39.957Z,19.20
2023-04-19T04:31:43.730Z,23.38
2023-04-19T04:35:48.622Z,18.00
2023-04-19T04:39:53.681Z,23.58
2023-04-19T04:44:11.389Z,15.68
2023-04-19T04:48:16.602Z,16.42
2023-04-19T04:52:20.205Z,23.65
2023-04-19T04:56:26.429Z,12.40
2023-04-19T05:00:30.147Z,19.25
2023-04-19T05:04:33.145Z,16.42
2023-04-19T05:08:37.011Z,26.23
2023-04-19T05:12:42.763Z,16.58
2023-04-19T05:16:46.970Z,23.35
2023-04-19T05:20:50.315Z,23.67
2023-04-19T05:24:53.474Z,21.48
2023-04-19T05:28:58.197Z,30.05
2023-04-19T05:33:02.075Z,19.80
2023-04-19T05:37:05.525Z,23.60
2023-04-19T05:41:08.816Z,25.20
2023-04-19T05:45:16.029Z,25.17
2023-04-19T05:49:19.382Z,21.95
2023-04-19T05:53:22.569Z,28.02
2023-04-19T05:57:26.373Z,25.73
2023-04-19T06:01:31.296Z,23.15
2023-04-19T06:05:35.213Z,24.80
2023-04-19T06:09:38.460Z,24.05
2023-04-19T06:13:42.284Z,22.95
2023-04-19T06:17:47.478Z,23.42
2023-04-19T06:21:51.863Z,18.45
2023-04-19T06:25:54.925Z,18.27
2023-04-19T06:29:58.459Z,22.65
2023-04-19T06:34:03.265Z,27.63
2023-04-19T06:38:06.843Z,26.25
2023-04-19T06:42:10.329Z,19.90
2023-04-19T06:46:14.402Z,22.08
2023-04-19T06:50:19.825Z,30.20
2023-04-19T06:54:23.258Z,26.13
2023-04-19T06:58:27.331Z,25.90
2023-04-19T07:02:30.906Z,21.27
2023-04-19T07:06:35.730Z,22.30
2023-04-19T07:10:39.151Z,24.63
2023-04-19T07:14:42.445Z,20.73
2023-04-19T07:18:46.238Z,21.45
2023-04-19T07:22:51.177Z,23.92
2023-04-19T07:26:54.674Z,22.15
2023-04-19T07:30:57.778Z,28.90
2023-04-19T07:35:01.406Z,21.88
2023-04-19T07:39:06.326Z,26.67
2023-04-19T07:43:10.442Z,22.92
2023-04-19T07:47:13.984Z,25.33
2023-04-19T07:51:20.100Z,23.83
2023-04-19T07:55:25.061Z,25.20
2023-04-19T07:59:28.679Z,22.98
2023-04-19T08:03:32.451Z,29.90
2023-04-19T08:07:36.329Z,20.20
2023-04-19T08:11:40.620Z,23.55
2023-04-19T08:19:51.198Z,25.00
2023-04-19T08:23:55.084Z,25.13
2023-04-19T08:27:59.502Z,26.13
2023-04-19T08:32:03.351Z,30.05
2023-04-19T08:36:07.340Z,28.42
2023-04-19T08:40:12.080Z,25.63
2023-04-19T08:44:32.552Z,30.33
2023-04-19T08:48:39.658Z,24.55
2023-04-19T08:52:53.992Z,27.52
2023-04-19T08:57:01.590Z,21.90
2023-04-19T09:01:17.095Z,25.38
2023-04-19T09:05:30.318Z,28.20
2023-04-19T09:09:40.696Z,26.70
2023-04-19T09:18:05.147Z,28.95
2023-04-19T09:22:15.708Z,25.48
2023-04-19T09:26:23.507Z,25.15
2023-04-19T09:30:32.363Z,27.20
2023-04-19T09:34:53.816Z,25.37
2023-04-19T09:38:57.181Z,29.23
2023-04-19T09:43:17.486Z,24.23
2023-04-19T09:47:25.752Z,21.15
2023-04-19T09:51:42.155Z,21.20
2023-04-19T09:55:57.779Z,24.40
2023-04-19T10:00:08.516Z,22.83
2023-04-19T10:04:25.875Z,25.67
2023-04-19T10:08:39.842Z,26.40
2023-04-19T10:12:59.194Z,28.98
2023-04-19T10:17:06.749Z,27.42
2023-04-19T10:21:13.097Z,27.50
2023-04-19T10:25:18.566Z,26.33
2023-04-19T10:30:00.909Z,30.58
2023-04-19T10:34:04.320Z,18.47
2023-04-19T10:38:10.534Z,15.82
2023-04-19T10:42:15.009Z,12.95
2023-04-19T10:46:38.884Z,5.78
2023-04-19T10:51:00.122Z,8.13
2023-04-19T10:55:05.737Z,7.30
2023-04-19T10:59:23.611Z,6.32
2023-04-19T11:03:54.565Z,5.95
2023-04-19T11:07:58.958Z,4.65
2023-04-19T11:12:04.215Z,6.55
2023-04-19T11:16:11.771Z,4.15
2023-04-19T11:20:15.502Z,4.25
2023-04-19T11:24:21.246Z,4.28
2023-04-19T11:28:24.738Z,3.92
2023-04-19T11:32:30.374Z,8.43
2023-04-19T11:36:34.168Z,5.05
2023-04-19T11:40:37.980Z,4.30
2023-04-19T11:44:41.551Z,7.22
2023-04-19T11:48:55.251Z,6.88
2023-04-19T11:52:59.790Z,9.38
2023-04-19T11:57:05.097Z,7.13
2023-04-19T12:01:10.199Z,6.50
2023-04-19T12:05:17.314Z,6.50
2023-04-19T12:09:24.242Z,3.53
2023-04-19T12:13:28.381Z,7.45
2023-04-19T12:17:31.551Z,6.15
2023-04-19T12:21:37.006Z,4.28
2023-04-19T12:25:40.628Z,3.88
2023-04-19T12:29:44.752Z,6.45
2023-04-19T12:33:47.801Z,7.40
2023-04-19T12:37:54.390Z,5.05
2023-04-19T12:41:58.101Z,6.00
2023-04-19T12:46:01.910Z,3.45
2023-04-19T12:50:06.126Z,5.35
2023-04-19T12:54:11.270Z,5.05
2023-04-19T12:58:14.592Z,4.50
2023-04-19T13:02:18.186Z,5.78
2023-04-19T13:06:21.784Z,7.03
2023-04-19T13:10:26.809Z,4.82
2023-04-19T13:14:31.085Z,8.48
2023-04-19T13:18:34.374Z,6.05
2023-04-19T13:22:37.747Z,5.15
2023-04-19T13:26:43.002Z,3.42
2023-04-19T13:30:46.668Z,1.80
2023-04-19T13:34:50.306Z,1.48
2023-04-19T13:38:53.381Z,1.15
2023-04-19T13:42:58.654Z,2.65
2023-04-19T13:47:03.715Z,1.55
2023-04-19T13:51:08.481Z,2.60
2023-04-19T13:55:11.951Z,7.40
2023-04-19T13:59:17.114Z,5.00
2023-04-19T14:03:20.944Z,2.65
2023-04-19T14:07:33.099Z,8.38
2023-04-19T14:11:38.355Z,4.77
2023-04-19T14:15:43.485Z,4.13
2023-04-19T14:19:46.699Z,4.53
2023-04-19T14:23:50.074Z,6.57
2023-04-19T14:27:53.958Z,3.75
2023-04-19T14:32:05.066Z,4.53
2023-04-19T14:36:14.198Z,5.60
2023-04-19T14:40:18.803Z,2.70
2023-04-19T14:44:22.364Z,5.20
2023-04-19T14:48:27.394Z,5.57
2023-04-19T14:52:31.087Z,21.08
2023-04-19T14:56:34.214Z,8.95
2023-04-19T15:00:37.820Z,6.43
2023-04-19T15:04:45.154Z,4.55
2023-04-19T15:08:49.100Z,2.42
2023-04-19T15:12:52.685Z,3.03
2023-04-19T15:16:56.318Z,3.03
2023-04-19T15:21:02.040Z,4.35
2023-04-19T15:25:06.145Z,3.35
2023-04-19T15:29:10.877Z,5.28
2023-04-19T15:33:14.307Z,4.50
2023-04-19T15:37:19.981Z,5.03
2023-04-19T15:41:23.575Z,4.32
2023-04-19T15:45:26.736Z,6.22
2023-04-19T15:49:32.272Z,3.55
2023-04-19T15:53:37.261Z,3.85
2023-04-19T15:57:40.974Z,3.92
2023-04-19T16:01:44.058Z,4.18
2023-04-19T16:05:50.878Z,2.50
2023-04-19T16:09:56.234Z,2.67
2023-04-19T16:13:59.283Z,4.82
2023-04-19T16:18:02.800Z,3.20
2023-04-19T16:22:07.248Z,7.40
2023-04-19T16:26:11.996Z,3.80
2023-04-19T16:30:16.448Z,2.70
2023-04-19T16:34:22.148Z,4.07
2023-04-19T16:38:25.873Z,4.07
2023-04-19T16:42:31.153Z,3.15
2023-04-19T16:46:34.277Z,5.03
2023-04-19T16:50:38.372Z,3.55
2023-04-19T16:54:43.648Z,3.42
2023-04-19T16:58:50.721Z,6.93
2023-04-19T17:02:57.035Z,2.65
2023-04-19T17:07:00.649Z,4.88
2023-04-19T17:11:03.793Z,4.57
2023-04-19T17:15:09.925Z,6.35
2023-04-19T17:19:13.217Z,5.18
2023-04-19T17:23:16.395Z,5.22
2023-04-19T17:27:19.513Z,6.13
2023-04-19T17:31:24.165Z,4.95
2023-04-19T17:35:27.612Z,4.88
2023-04-19T17:39:31.224Z,4.38
2023-04-19T17:43:34.750Z,4.18
2023-04-19T17:47:40.139Z,4.88
2023-04-19T17:51:43.919Z,4.55
2023-04-19T17:55:47.210Z,4.80
2023-04-19T17:59:50.631Z,13.00
2023-04-19T18:03:55.408Z,6.78
2023-04-19T18:08:01.224Z,7.18
2023-04-19T18:12:04.651Z,5.43
2023-04-19T18:16:07.960Z,6.43
2023-04-19T18:20:14.461Z,4.43
2023-04-19T18:24:17.877Z,7.32
2023-04-19T18:28:21.645Z,10.07
2023-04-19T18:32:29.223Z,3.97
2023-04-19T18:36:33.587Z,5.80
2023-04-19T18:40:38.619Z,6.20
2023-04-19T18:48:48.746Z,8.82
2023-04-19T18:52:53.135Z,6.45
2023-04-19T18:57:21.778Z,5.88
2023-04-19T19:01:21.067Z,6.65
2023-04-19T19:05:24.444Z,4.53
2023-04-19T19:09:29.246Z,5.80
2023-04-19T19:13:32.513Z,7.10
2023-04-19T19:17:36.410Z,4.25
2023-04-19T19:21:41.694Z,5.65
2023-04-19T19:25:51.873Z,3.10
2023-04-19T19:29:58.808Z,4.35
2023-04-19T19:34:22.692Z,6.65
2023-04-19T19:38:27.458Z,4.93
2023-04-19T19:42:34.158Z,7.57
2023-04-19T19:46:37.811Z,3.35
2023-04-19T19:54:52.549Z,10.75
2023-04-19T19:58:58.420Z,5.18
2023-04-19T20:03:02.224Z,3.60
2023-04-19T20:11:14.015Z,4.00
2023-04-19T20:15:19.302Z,4.88
2023-04-19T20:19:22.913Z,5.40
2023-04-19T20:23:28.912Z,6.35
2023-04-19T20:27:38.260Z,7.88
2023-04-19T20:31:44.446Z,7.13
2023-04-19T20:35:56.972Z,5.07
2023-04-19T20:44:05.516Z,4.25
2023-04-19T20:48:10.935Z,5.60
2023-04-19T20:52:14.479Z,8.23
2023-04-19T20:56:18.323Z,9.05
2023-04-19T21:00:22.312Z,11.93
2023-04-19T21:04:27.976Z,8.55
2023-04-19T21:08:31.235Z,7.55
2023-04-19T21:12:35.277Z,9.70
2023-04-19T21:16:40.795Z,8.07
2023-04-19T21:20:45.394Z,7.07
2023-04-19T21:24:48.501Z,9.27
2023-04-19T21:28:53.002Z,6.63
2023-04-19T21:32:56.705Z,8.32
2023-04-19T21:37:01.551Z,6.53
2023-04-19T21:41:05.299Z,7.93
2023-04-19T21:45:09.962Z,7.38
2023-04-19T21:49:15.441Z,10.57
2023-04-19T21:53:20.195Z,7.30
2023-04-19T21:57:25.361Z,8.73
2023-04-19T22:01:29.054Z,5.32
2023-04-19T22:05:32.995Z,8.73
2023-04-19T22:09:37.551Z,10.88
2023-04-19T22:13:41.586Z,12.32
2023-04-19T22:17:46.262Z,8.38
2023-04-19T22:21:50.073Z,13.30
2023-04-19T22:25:54.749Z,8.48
2023-04-19T22:29:58.389Z,8.88
2023-04-19T22:34:01.704Z,12.05
2023-04-19T22:38:05.177Z,10.52
2023-04-19T22:42:10.318Z,11.90
2023-04-19T22:46:14.092Z,14.90
2023-04-19T22:50:18.283Z,14.45
2023-04-19T22:54:21.871Z,10.18
2023-04-19T22:58:26.414Z,15.23
2023-04-19T23:02:29.771Z,14.18
2023-04-19T23:06:34.626Z,12.50
2023-04-19T23:10:39.149Z,13.93
2023-04-19T23:14:44.011Z,15.20
2023-04-19T23:18:47.310Z,15.45
2023-04-19T23:22:51.082Z,21.65
2023-04-19T23:26:54.493Z,17.60
2023-04-19T23:30:59.722Z,18.50
2023-04-19T23:35:03.210Z,16.60
2023-04-19T23:39:08.704Z,15.65
2023-04-19T23:43:11.844Z,14.95
2023-04-19T23:47:17.383Z,19.42
2023-04-19T23:51:20.584Z,13.80
2023-04-19T23:55:24.693Z,16.55
2023-04-19T23:59:28.192Z,10.52
